Time;durP1;ratioP1;P1;durP2;ratioP2;P2;SDS_P1;SDS_P2;PMS_P1;PMS_P2;Temp;Humidity;BMP_temperature;BMP_pressure;BME280_temperature;BME280_humidity;BME280_pressure;Samples;Min_cycle;Max_cycle;Signal;HPM_P1;HPM_P2
2022/10/06 00:00:50;;;;;;;0.60;0.60;;;10.40;99.90;;;;;;5055620;28;20389;-79
2022/10/06 00:03:16;;;;;;;0.80;0.80;;;10.30;99.90;;;;;;5055600;28;20175;-81
2022/10/06 00:05:42;;;;;;;0.50;0.50;;;10.30;99.90;;;;;;5055491;28;20685;-78
2022/10/06 00:08:08;;;;;;;0.57;0.57;;;10.30;99.90;;;;;;5054896;28;20175;-80
2022/10/06 00:10:34;;;;;;;0.50;0.50;;;10.30;99.90;;;;;;5054711;28;20290;-81
2022/10/06 00:12:59;;;;;;;0.60;0.60;;;10.30;99.90;;;;;;5055742;28;20199;-80
2022/10/06 00:15:28;;;;;;;0.60;0.60;;;10.20;99.90;;;;;;5056076;28;20197;-80
2022/10/06 00:17:55;;;;;;;0.50;0.50;;;10.20;99.90;;;;;;5055689;28;20187;-79
2022/10/06 00:20:22;;;;;;;0.63;0.63;;;10.20;99.90;;;;;;5054429;28;20675;-79
2022/10/06 00:22:48;;;;;;;0.80;0.80;;;10.30;99.90;;;;;;5054847;28;20179;-79
2022/10/06 00:25:17;;;;;;;0.50;0.50;;;10.20;99.90;;;;;;5055535;28;20194;-81
2022/10/06 00:27:46;;;;;;;0.60;0.60;;;10.10;99.90;;;;;;5055286;28;20180;-81
2022/10/06 00:30:15;;;;;;;0.60;0.60;;;10.20;99.90;;;;;;5054521;28;20219;-80
2022/10/06 00:32:48;;;;;;;0.57;0.57;;;10.30;99.90;;;;;;5054670;28;20218;-81
2022/10/06 00:35:14;;;;;;;0.50;0.50;;;10.20;99.90;;;;;;5055120;28;20191;-81
2022/10/06 00:37:39;;;;;;;0.70;0.70;;;10.20;99.90;;;;;;5055725;28;20582;-81
2022/10/06 00:40:08;;;;;;;0.60;0.60;;;10.10;99.90;;;;;;5054903;28;20286;-79
2022/10/06 00:42:47;;;;;;;0.60;0.60;;;10.10;99.90;;;;;;5055603;28;20176;-81
2022/10/06 00:45:13;;;;;;;0.53;0.53;;;10.00;99.90;;;;;;5055269;28;20202;-79
2022/10/06 00:47:38;;;;;;;0.70;0.70;;;10.00;99.90;;;;;;5055403;28;20183;-82
2022/10/06 00:50:05;;;;;;;0.60;0.60;;;10.00;99.90;;;;;;5054704;28;20290;-82
2022/10/06 00:52:31;;;;;;;0.50;0.50;;;10.00;99.90;;;;;;5056022;28;20227;-81
2022/10/06 00:54:58;;;;;;;0.50;0.50;;;10.00;99.90;;;;;;5055386;28;20179;-82
2022/10/06 00:57:25;;;;;;;0.60;0.60;;;10.00;99.90;;;;;;5055152;28;20236;-82
2022/10/06 00:59:52;;;;;;;0.60;0.60;;;9.90;99.90;;;;;;5054223;28;20231;-82
2022/10/06 01:02:30;;;;;;;0.50;0.50;;;9.80;99.90;;;;;;5054691;28;20183;-80
2022/10/06 01:04:59;;;;;;;0.60;0.60;;;9.90;99.90;;;;;;5055521;28;20182;-82
2022/10/06 01:07:27;;;;;;;0.60;0.60;;;9.80;99.90;;;;;;5055714;28;20676;-80
2022/10/06 01:09:54;;;;;;;0.60;0.60;;;9.80;99.90;;;;;;5057384;28;20229;-79
2022/10/06 01:12:20;;;;;;;0.70;0.70;;;9.70;99.90;;;;;;5067469;28;20217;-79
2022/10/06 01:14:47;;;;;;;0.60;0.60;;;9.70;99.90;;;;;;5068028;28;20183;-79
2022/10/06 01:17:23;;;;;;;0.50;0.50;;;9.70;99.90;;;;;;5069634;28;20167;-79
2022/10/06 01:20:03;;;;;;;0.60;0.60;;;9.80;99.90;;;;;;5067199;28;20225;-79
2022/10/06 01:22:30;;;;;;;0.60;0.60;;;9.80;99.90;;;;;;5052073;28;20241;-80
2022/10/06 01:24:56;;;;;;;0.60;0.60;;;9.80;99.90;;;;;;5071574;28;20183;-79
2022/10/06 01:27:24;;;;;;;0.50;0.50;;;9.80;99.90;;;;;;5071728;28;20183;-80
2022/10/06 01:29:52;;;;;;;0.60;0.60;;;9.80;99.90;;;;;;5071276;28;20215;-80
2022/10/06 01:32:18;;;;;;;0.60;0.60;;;9.80;99.90;;;;;;5072292;28;20214;-80
2022/10/06 01:34:45;;;;;;;0.70;0.70;;;9.60;99.90;;;;;;5055629;28;20195;-78
2022/10/06 01:37:10;;;;;;;0.60;0.60;;;9.50;99.90;;;;;;5070667;28;20194;-79
2022/10/06 01:39:36;;;;;;;0.60;0.60;;;9.50;99.90;;;;;;5067493;28;20643;-80
2022/10/06 01:42:02;;;;;;;0.60;0.60;;;9.50;99.90;;;;;;5068698;28;20178;-79
2022/10/06 01:44:27;;;;;;;0.60;0.60;;;9.40;99.90;;;;;;5067989;28;20227;-80
2022/10/06 01:46:53;;;;;;;0.73;0.73;;;9.30;99.90;;;;;;5057904;28;20221;-81
2022/10/06 01:49:18;;;;;;;0.60;0.60;;;9.30;99.90;;;;;;5056596;28;20209;-81
2022/10/06 01:51:46;;;;;;;0.60;0.60;;;9.20;99.90;;;;;;5055811;28;20199;-81
2022/10/06 01:54:12;;;;;;;0.70;0.70;;;9.30;99.90;;;;;;5056197;28;20211;-81
2022/10/06 01:56:37;;;;;;;0.60;0.60;;;9.20;99.90;;;;;;5057298;28;20175;-81
2022/10/06 01:59:03;;;;;;;0.70;0.70;;;9.30;99.90;;;;;;5055924;28;20662;-82
2022/10/06 02:01:29;;;;;;;0.60;0.60;;;9.30;99.90;;;;;;5056310;28;20199;-82
2022/10/06 02:03:54;;;;;;;0.70;0.70;;;9.30;99.90;;;;;;5056632;28;20175;-82
2022/10/06 02:06:20;;;;;;;0.50;0.50;;;9.20;99.90;;;;;;5055958;28;20183;-81
2022/10/06 02:08:45;;;;;;;0.50;0.50;;;9.20;99.90;;;;;;5055807;28;20167;-81
2022/10/06 02:11:12;;;;;;;0.50;0.50;;;9.20;99.90;;;;;;5055081;28;20289;-82
2022/10/06 02:13:37;;;;;;;0.67;0.67;;;9.20;99.90;;;;;;5056566;28;20306;-81
2022/10/06 02:16:05;;;;;;;0.53;0.53;;;9.30;99.90;;;;;;5056073;28;20650;-81
2022/10/06 02:18:32;;;;;;;0.60;0.60;;;9.30;99.90;;;;;;5058839;28;20528;-80
2022/10/06 02:20:58;;;;;;;0.60;0.60;;;9.20;99.90;;;;;;5058731;28;20199;-81
2022/10/06 02:23:24;;;;;;;0.70;0.70;;;9.20;99.90;;;;;;5050640;28;20186;-81
2022/10/06 02:26:05;;;;;;;0.53;0.53;;;9.10;99.90;;;;;;5059353;28;20557;-81
2022/10/06 02:28:31;;;;;;;0.60;0.60;;;9.10;99.90;;;;;;5059179;28;20179;-81
2022/10/06 02:31:07;;;;;;;0.80;0.80;;;9.00;99.90;;;;;;5058772;28;20681;-80
2022/10/06 02:33:34;;;;;;;0.60;0.60;;;9.00;99.90;;;;;;5058105;28;20214;-81
2022/10/06 02:36:00;;;;;;;0.60;0.60;;;9.00;99.90;;;;;;5059321;28;20179;-80
2022/10/06 02:38:26;;;;;;;0.60;0.60;;;9.10;99.90;;;;;;5058317;28;20209;-80
2022/10/06 02:40:52;;;;;;;0.70;0.70;;;9.10;99.90;;;;;;5057238;28;20199;-81
2022/10/06 02:43:18;;;;;;;0.67;0.67;;;9.20;99.90;;;;;;5058207;28;20180;-81
2022/10/06 02:45:55;;;;;;;0.70;0.70;;;9.10;99.90;;;;;;5040132;28;20218;-81
2022/10/06 02:48:23;;;;;;;0.63;0.63;;;9.10;99.90;;;;;;5057674;28;20189;-80
2022/10/06 02:51:19;;;;;;;0.70;0.70;;;8.90;99.90;;;;;;5057030;28;20195;-78
2022/10/06 02:53:47;;;;;;;0.70;0.70;;;8.90;99.90;;;;;;5057249;28;20214;-79
2022/10/06 02:56:23;;;;;;;0.57;0.57;;;8.80;99.90;;;;;;5057053;28;20181;-79
2022/10/06 02:58:50;;;;;;;0.57;0.57;;;8.80;99.90;;;;;;5057520;28;20225;-81
2022/10/06 03:01:18;;;;;;;0.70;0.70;;;8.70;99.90;;;;;;5056971;28;20190;-79
2022/10/06 03:03:45;;;;;;;0.60;0.60;;;8.70;99.90;;;;;;5057021;28;20171;-81
2022/10/06 03:06:22;;;;;;;0.60;0.60;;;8.70;99.90;;;;;;5058053;28;20189;-80
2022/10/06 03:08:55;;;;;;;0.60;0.60;;;8.70;99.90;;;;;;5024968;28;20179;-80
2022/10/06 03:11:29;;;;;;;0.60;0.60;;;8.70;99.90;;;;;;5056793;28;20202;-79
2022/10/06 03:13:56;;;;;;;0.60;0.60;;;8.70;99.90;;;;;;5057241;28;20217;-82
2022/10/06 03:16:30;;;;;;;0.70;0.70;;;8.70;99.90;;;;;;5057079;28;20286;-81
2022/10/06 03:18:56;;;;;;;0.67;0.67;;;8.70;99.90;;;;;;5057645;28;20179;-81
2022/10/06 03:21:25;;;;;;;0.60;0.60;;;8.70;99.90;;;;;;5056304;28;20187;-80
2022/10/06 03:23:52;;;;;;;0.50;0.50;;;8.60;99.90;;;;;;5057180;28;20681;-79
2022/10/06 03:26:21;;;;;;;0.60;0.60;;;8.60;99.90;;;;;;5057267;28;20195;-79
2022/10/06 03:28:47;;;;;;;0.70;0.70;;;8.60;99.90;;;;;;5056423;28;20171;-82
2022/10/06 03:31:13;;;;;;;0.70;0.70;;;8.70;99.90;;;;;;5057057;28;20570;-78
2022/10/06 03:33:39;;;;;;;0.60;0.60;;;8.60;99.90;;;;;;5057317;28;20211;-80
2022/10/06 03:36:07;;;;;;;0.70;0.70;;;8.50;99.90;;;;;;5056934;28;20517;-79
2022/10/06 03:38:33;;;;;;;0.70;0.70;;;8.40;99.90;;;;;;5057515;28;20187;-80
2022/10/06 03:41:04;;;;;;;0.70;0.70;;;8.40;99.90;;;;;;5057098;28;20214;-80
2022/10/06 03:43:30;;;;;;;0.70;0.70;;;8.40;99.90;;;;;;5057143;28;20187;-82
2022/10/06 03:45:56;;;;;;;0.60;0.60;;;8.30;99.90;;;;;;5057556;28;20185;-82
2022/10/06 03:48:22;;;;;;;0.60;0.60;;;8.40;99.90;;;;;;5057073;28;20187;-81
2022/10/06 03:50:55;;;;;;;0.60;0.60;;;8.40;99.90;;;;;;5056839;28;20355;-81
2022/10/06 03:53:24;;;;;;;0.70;0.70;;;8.50;99.90;;;;;;5058274;28;20225;-80
2022/10/06 03:55:58;;;;;;;0.80;0.80;;;8.60;99.90;;;;;;5058235;28;20179;-82
2022/10/06 03:58:23;;;;;;;0.60;0.60;;;8.70;99.90;;;;;;5057841;28;20237;-82
2022/10/06 04:00:56;;;;;;;0.60;0.60;;;8.90;99.90;;;;;;5057521;28;20199;-81
2022/10/06 04:03:21;;;;;;;0.70;0.70;;;9.00;99.90;;;;;;5057646;28;20198;-81
2022/10/06 04:05:56;;;;;;;0.80;0.80;;;9.10;99.90;;;;;;5057720;28;20175;-81
2022/10/06 04:08:22;;;;;;;0.77;0.77;;;9.10;99.90;;;;;;5057550;28;20742;-81
2022/10/06 04:10:48;;;;;;;0.70;0.70;;;9.20;99.90;;;;;;5063783;28;20218;-79
2022/10/06 04:13:16;;;;;;;0.60;0.60;;;9.20;99.90;;;;;;5069081;28;20214;-80
2022/10/06 04:15:42;;;;;;;0.57;0.57;;;9.10;99.90;;;;;;5068006;28;20222;-80
2022/10/06 04:18:07;;;;;;;0.70;0.70;;;9.20;99.90;;;;;;5072526;28;20179;-79
2022/10/06 04:20:33;;;;;;;0.70;0.70;;;9.10;99.90;;;;;;5072571;28;20218;-80
2022/10/06 04:22:58;;;;;;;0.60;0.60;;;9.10;99.90;;;;;;5074909;28;20184;-81
2022/10/06 04:25:24;;;;;;;0.70;0.70;;;9.30;99.90;;;;;;5057653;28;20214;-82
2022/10/06 04:27:49;;;;;;;0.70;0.70;;;9.40;99.90;;;;;;5055491;28;20179;-82
2022/10/06 04:30:15;;;;;;;0.70;0.70;;;9.40;99.90;;;;;;5055019;28;20191;-81
2022/10/06 04:32:41;;;;;;;0.70;0.70;;;9.50;99.90;;;;;;5055959;28;20206;-82
2022/10/06 04:35:07;;;;;;;0.70;0.70;;;9.50;99.90;;;;;;5055617;28;20183;-82
2022/10/06 04:37:32;;;;;;;0.77;0.77;;;9.60;99.90;;;;;;5055179;28;20183;-82
2022/10/06 04:39:58;;;;;;;0.70;0.70;;;9.60;99.90;;;;;;5054734;28;20191;-82
2022/10/06 04:42:23;;;;;;;0.60;0.60;;;9.60;99.90;;;;;;5052561;28;20190;-82
2022/10/06 04:44:49;;;;;;;0.67;0.67;;;9.50;99.90;;;;;;5054816;28;20178;-81
2022/10/06 04:47:14;;;;;;;0.70;0.70;;;9.40;99.90;;;;;;5036530;28;20175;-81
2022/10/06 04:49:40;;;;;;;0.70;0.70;;;9.30;99.90;;;;;;5054721;28;20650;-82
2022/10/06 04:52:05;;;;;;;0.70;0.70;;;9.30;99.90;;;;;;5055103;28;20594;-81
2022/10/06 04:54:31;;;;;;;0.60;0.60;;;9.30;99.90;;;;;;5054935;28;20186;-82
2022/10/06 04:56:57;;;;;;;0.80;0.80;;;9.30;99.90;;;;;;5054799;28;20194;-81
2022/10/06 05:00:21;;;;;;;0.60;0.60;;;9.30;99.90;;;;;;5054987;28;20179;-81
2022/10/06 05:02:08;;;;;;;0.63;0.63;;;9.30;99.90;;;;;;5055688;28;20285;-81
2022/10/06 05:04:33;;;;;;;0.70;0.70;;;9.40;99.90;;;;;;5055531;28;20179;-82
2022/10/06 05:06:59;;;;;;;0.70;0.70;;;9.30;99.90;;;;;;5054599;28;20566;-82
2022/10/06 05:09:24;;;;;;;0.60;0.60;;;9.20;99.90;;;;;;5054823;28;20187;-82
2022/10/06 05:11:50;;;;;;;0.80;0.80;;;9.20;99.90;;;;;;5049337;28;20223;-82
2022/10/06 05:14:15;;;;;;;0.63;0.63;;;9.20;99.90;;;;;;5056596;28;20230;-81
2022/10/06 05:16:41;;;;;;;0.60;0.60;;;9.20;99.90;;;;;;5056680;28;20240;-82
2022/10/06 05:19:07;;;;;;;0.70;0.70;;;9.10;99.90;;;;;;5055711;28;20261;-82
2022/10/06 05:21:33;;;;;;;0.63;0.63;;;9.10;99.90;;;;;;5049889;28;20221;-79
2022/10/06 05:23:59;;;;;;;0.63;0.63;;;9.00;99.90;;;;;;5058494;28;20178;-80
2022/10/06 05:26:28;;;;;;;0.70;0.70;;;9.10;99.90;;;;;;5057123;28;20202;-80
2022/10/06 05:28:53;;;;;;;0.60;0.60;;;9.10;99.90;;;;;;5053910;28;20183;-80
2022/10/06 05:31:27;;;;;;;0.67;0.67;;;9.20;99.90;;;;;;5052656;28;20213;-80
2022/10/06 05:33:54;;;;;;;0.67;0.67;;;9.40;99.90;;;;;;5053557;28;20222;-80
2022/10/06 05:36:22;;;;;;;0.70;0.70;;;9.50;99.90;;;;;;5052881;28;20190;-80
2022/10/06 05:38:48;;;;;;;0.60;0.60;;;9.60;99.90;;;;;;5054200;28;20179;-81
2022/10/06 05:41:19;;;;;;;0.60;0.60;;;9.60;99.90;;;;;;5054233;28;20213;-80
2022/10/06 05:43:45;;;;;;;0.70;0.70;;;9.50;99.90;;;;;;5054141;28;20210;-81
2022/10/06 05:46:19;;;;;;;0.60;0.60;;;9.50;99.90;;;;;;5053689;28;20175;-80
2022/10/06 05:48:46;;;;;;;0.70;0.70;;;9.60;99.90;;;;;;5053735;28;20174;-81
2022/10/06 05:51:12;;;;;;;0.57;0.57;;;9.60;99.90;;;;;;5052749;28;20483;-80
2022/10/06 05:53:38;;;;;;;0.60;0.60;;;9.80;99.90;;;;;;5053432;28;20210;-81
2022/10/06 05:56:10;;;;;;;0.50;0.50;;;9.90;99.90;;;;;;5053892;28;20233;-81
2022/10/06 05:58:37;;;;;;;0.60;0.60;;;9.90;99.90;;;;;;5036143;28;20195;-81
2022/10/06 06:01:13;;;;;;;0.70;0.70;;;9.90;99.90;;;;;;5053187;28;20195;-81
2022/10/06 06:03:40;;;;;;;0.50;0.50;;;10.00;99.90;;;;;;5053604;28;20250;-82
2022/10/06 06:06:22;;;;;;;0.60;0.60;;;10.00;99.90;;;;;;5053767;28;20186;-80
2022/10/06 06:08:53;;;;;;;0.60;0.60;;;10.10;99.90;;;;;;5054332;28;20186;-82
2022/10/06 06:11:24;;;;;;;0.50;0.50;;;10.10;99.90;;;;;;5052822;28;20544;-81
2022/10/06 06:13:50;;;;;;;0.60;0.60;;;10.10;99.90;;;;;;5035492;28;20214;-82
2022/10/06 06:16:16;;;;;;;0.67;0.67;;;10.20;99.90;;;;;;5053749;28;20575;-84
2022/10/06 06:18:41;;;;;;;0.63;0.63;;;10.30;99.90;;;;;;5049681;28;20745;-82
2022/10/06 06:21:08;;;;;;;0.73;0.73;;;10.30;99.90;;;;;;5052258;28;20209;-83
2022/10/06 06:23:36;;;;;;;0.60;0.60;;;10.40;99.90;;;;;;5054177;28;20182;-84
2022/10/06 06:26:06;;;;;;;0.60;0.60;;;10.50;99.90;;;;;;5053699;28;20282;-83
2022/10/06 06:28:32;;;;;;;0.50;0.50;;;10.40;99.90;;;;;;5036546;28;20209;-82
2022/10/06 06:31:08;;;;;;;0.70;0.70;;;10.30;99.90;;;;;;5052866;28;20205;-82
2022/10/06 06:33:38;;;;;;;0.70;0.70;;;10.30;99.90;;;;;;5050518;28;20216;-83
2022/10/06 06:36:16;;;;;;;0.50;0.50;;;10.30;99.90;;;;;;5052533;28;20175;-82
2022/10/06 06:38:44;;;;;;;0.63;0.63;;;10.40;99.90;;;;;;5047676;28;20175;-82
2022/10/06 06:41:24;;;;;;;0.60;0.60;;;10.40;99.90;;;;;;5054574;28;20282;-82
2022/10/06 06:43:51;;;;;;;0.70;0.70;;;10.50;99.90;;;;;;5054991;28;20176;-81
2022/10/06 06:46:19;;;;;;;0.70;0.70;;;10.60;99.90;;;;;;5054019;28;20232;-81
2022/10/06 06:48:46;;;;;;;0.50;0.50;;;10.80;99.90;;;;;;5050026;28;20175;-81
2022/10/06 06:51:12;;;;;;;0.57;0.57;;;10.90;99.90;;;;;;5053707;28;20207;-82
2022/10/06 06:53:38;;;;;;;0.60;0.60;;;11.00;99.90;;;;;;5053752;28;20517;-80
2022/10/06 06:56:05;;;;;;;0.60;0.60;;;11.00;99.90;;;;;;5053634;28;20175;-81
2022/10/06 06:58:31;;;;;;;0.60;0.60;;;11.00;99.90;;;;;;5053914;28;20225;-81
2022/10/06 07:01:13;;;;;;;0.50;0.50;;;11.10;99.90;;;;;;5051212;28;20281;-82
2022/10/06 07:03:40;;;;;;;0.50;0.50;;;11.10;99.90;;;;;;5055934;28;20503;-79
2022/10/06 07:06:08;;;;;;;0.70;0.70;;;11.10;99.90;;;;;;5057714;28;20724;-78
2022/10/06 07:08:36;;;;;;;0.50;0.50;;;11.20;99.90;;;;;;5057428;28;20563;-78
2022/10/06 07:11:12;;;;;;;0.50;0.50;;;11.20;99.90;;;;;;5057409;28;20188;-79
2022/10/06 07:13:38;;;;;;;0.60;0.60;;;11.30;99.90;;;;;;5058442;28;20589;-78
2022/10/06 07:27:01;;;;;;;0.50;0.50;;;11.80;99.90;;;;;;5059896;28;20182;-77
2022/10/06 07:29:26;;;;;;;0.53;0.53;;;12.20;99.90;;;;;;5072934;28;20191;-77
2022/10/06 07:31:53;;;;;;;0.50;0.50;;;12.30;99.90;;;;;;5073871;28;20617;-77
2022/10/06 07:34:18;;;;;;;0.50;0.50;;;12.40;99.90;;;;;;5065724;28;20267;-79
2022/10/06 07:36:45;;;;;;;0.57;0.57;;;12.50;99.90;;;;;;5055213;28;20167;-78
2022/10/06 07:39:11;;;;;;;0.50;0.50;;;12.60;99.90;;;;;;5054815;28;20673;-80
2022/10/06 07:41:37;;;;;;;0.50;0.50;;;12.60;99.90;;;;;;5054558;28;20201;-80
2022/10/06 07:44:04;;;;;;;0.50;0.50;;;12.70;99.90;;;;;;5054267;28;20183;-79
2022/10/06 07:46:30;;;;;;;0.50;0.50;;;12.60;99.90;;;;;;5055877;28;20175;-78
2022/10/06 07:48:55;;;;;;;0.50;0.50;;;12.70;99.90;;;;;;5055752;28;20631;-79
2022/10/06 07:51:23;;;;;;;0.40;0.40;;;12.80;99.90;;;;;;5054448;28;20195;-78
2022/10/06 07:53:52;;;;;;;0.40;0.40;;;12.90;99.90;;;;;;5055337;28;20218;-77
2022/10/06 07:56:21;;;;;;;0.40;0.40;;;13.00;99.90;;;;;;5054445;28;20183;-78
2022/10/06 07:58:47;;;;;;;0.50;0.50;;;13.10;99.90;;;;;;5056447;28;20180;-77
2022/10/06 08:01:16;;;;;;;0.50;0.50;;;13.20;99.90;;;;;;5054525;28;20217;-79
2022/10/06 08:03:44;;;;;;;0.60;0.60;;;13.30;99.90;;;;;;5046943;28;20174;-79
2022/10/06 08:06:14;;;;;;;0.50;0.50;;;13.40;99.90;;;;;;5049420;28;20179;-76
2022/10/06 08:08:42;;;;;;;0.43;0.43;;;13.50;99.90;;;;;;5054843;28;20233;-79
2022/10/06 08:11:09;;;;;;;0.50;0.50;;;13.50;99.90;;;;;;5055013;28;20210;-79
2022/10/06 08:13:40;;;;;;;0.50;0.50;;;13.70;99.90;;;;;;5056243;28;20218;-79
2022/10/06 08:16:08;;;;;;;0.50;0.50;;;13.80;99.90;;;;;;5055456;28;20190;-80
2022/10/06 08:18:33;;;;;;;0.30;0.30;;;13.90;99.90;;;;;;5057577;28;20183;-81
2022/10/06 08:20:59;;;;;;;0.47;0.47;;;13.90;99.90;;;;;;5055916;28;20198;-79
2022/10/06 08:23:25;;;;;;;0.50;0.50;;;13.80;99.90;;;;;;5055736;28;20194;-78
2022/10/06 08:25:53;;;;;;;0.50;0.50;;;13.70;99.90;;;;;;5057451;28;20640;-78
2022/10/06 08:28:19;;;;;;;0.40;0.40;;;13.60;99.90;;;;;;5057517;28;20234;-81
2022/10/06 08:30:45;;;;;;;0.40;0.40;;;13.70;99.90;;;;;;5062200;28;20218;-80
2022/10/06 08:33:11;;;;;;;0.40;0.40;;;13.80;99.90;;;;;;5064054;28;20207;-82
2022/10/06 08:35:38;;;;;;;0.40;0.40;;;14.30;99.90;;;;;;5061498;28;20640;-80
2022/10/06 08:38:04;;;;;;;0.40;0.40;;;14.20;99.90;;;;;;5057355;28;20631;-81
2022/10/06 08:40:31;;;;;;;0.40;0.40;;;14.40;99.90;;;;;;5063319;28;20204;-80
2022/10/06 08:42:59;;;;;;;0.40;0.40;;;14.60;99.90;;;;;;5062541;28;20610;-80
2022/10/06 08:45:33;;;;;;;0.40;0.40;;;14.60;99.90;;;;;;5064196;28;20183;-81
2022/10/06 08:48:10;;;;;;;0.40;0.40;;;14.70;99.90;;;;;;5063026;28;20183;-81
2022/10/06 08:50:49;;;;;;;0.40;0.40;;;14.90;99.90;;;;;;5062767;28;20195;-81
2022/10/06 08:53:45;;;;;;;0.40;0.40;;;15.00;74.20;;;;;;5064282;28;20219;-81
2022/10/06 08:56:20;;;;;;;0.50;0.50;;;15.10;99.90;;;;;;5063393;28;20651;-80
2022/10/06 08:58:52;;;;;;;0.50;0.50;;;15.10;99.90;;;;;;5062165;28;20554;-79
2022/10/06 09:01:27;;;;;;;0.40;0.40;;;15.10;99.90;;;;;;5060287;28;20191;-81
2022/10/06 09:04:00;;;;;;;0.60;0.60;;;15.10;99.90;;;;;;5064792;28;20193;-80
2022/10/06 09:06:53;;;;;;;0.50;0.50;;;15.20;99.90;;;;;;5064664;28;20579;-80
2022/10/06 09:09:24;;;;;;;0.40;0.40;;;15.30;99.90;;;;;;5064549;28;20198;-82
2022/10/06 09:12:18;;;;;;;0.40;0.40;;;15.30;99.90;;;;;;5066645;28;20191;-81
2022/10/06 09:15:29;;;;;;;0.40;0.40;;;15.60;96.40;;;;;;5062726;28;20571;-80
2022/10/06 09:18:14;;;;;;;0.40;0.40;;;15.80;70.60;;;;;;5045113;28;20202;-81
2022/10/06 09:20:50;;;;;;;0.40;0.40;;;16.10;1.00;;;;;;5056938;28;20206;-78
2022/10/06 09:23:46;;;;;;;0.40;0.40;;;16.40;1.00;;;;;;5059758;28;20171;-80
2022/10/06 09:26:13;;;;;;;0.30;0.30;;;16.50;1.00;;;;;;5050945;28;20206;-79
2022/10/06 09:28:39;;;;;;;0.40;0.40;;;16.70;1.00;;;;;;5064686;28;20270;-79
2022/10/06 09:31:30;;;;;;;0.40;0.40;;;16.90;99.90;;;;;;5066372;28;20702;-79
2022/10/06 09:34:11;;;;;;;0.50;0.50;;;17.50;99.90;;;;;;5041303;28;20206;-79
2022/10/06 09:37:08;;;;;;;0.50;0.50;;;18.00;1.00;;;;;;5059644;28;20657;-79
2022/10/06 09:39:38;;;;;;;0.40;0.40;;;19.10;1.00;;;;;;5059502;28;20176;-79
2022/10/06 09:42:34;;;;;;;0.40;0.40;;;20.00;99.90;;;;;;5062654;28;20171;-80
2022/10/06 09:45:02;;;;;;;0.30;0.30;;;19.90;99.90;;;;;;5057870;28;20196;-80
2022/10/06 09:47:30;;;;;;;0.30;0.30;;;19.10;1.00;;;;;;5064303;28;20312;-78
2022/10/06 09:50:21;;;;;;;0.30;0.30;;;19.00;1.00;;;;;;5060393;28;20210;-78
2022/10/06 09:53:04;;;;;;;0.30;0.30;;;19.20;1.00;;;;;;5059840;28;20215;-78
2022/10/06 09:55:39;;;;;;;0.40;0.40;;;19.70;99.90;;;;;;5060684;28;20194;-78
2022/10/06 09:58:17;;;;;;;0.40;0.40;;;19.30;99.90;;;;;;5059899;28;20179;-78
2022/10/06 10:00:59;;;;;;;0.40;0.40;;;20.30;1.00;;;;;;5057073;28;20228;-78
2022/10/06 10:03:25;;;;;;;0.40;0.40;;;22.20;1.00;;;;;;5053344;28;20662;-78
2022/10/06 10:05:56;;;;;;;0.40;0.40;;;22.80;1.00;;;;;;5050346;28;20178;-74
2022/10/06 10:08:23;;;;;;;0.40;0.40;;;22.70;1.00;;;;;;5050831;28;20175;-74
2022/10/06 10:12:23;;;;;;;0.40;0.40;;;23.20;1.00;;;;;;5049865;28;20663;-76
2022/10/06 10:13:57;;;;;;;0.50;0.50;;;24.00;1.00;;;;;;5050054;28;20264;-76
2022/10/06 10:16:29;;;;;;;0.40;0.40;;;23.00;1.00;;;;;;5049877;28;20203;-75
2022/10/06 10:18:55;;;;;;;0.60;0.60;;;22.20;1.00;;;;;;5050156;28;20224;-74
2022/10/06 10:21:28;;;;;;;0.40;0.40;;;21.40;1.00;;;;;;5049627;28;20281;-74
2022/10/06 10:23:56;;;;;;;0.40;0.40;;;21.30;1.00;;;;;;5050176;28;20167;-76
2022/10/06 10:26:46;;;;;;;0.40;0.40;;;21.40;1.00;;;;;;5050313;28;20171;-76
2022/10/06 10:29:15;;;;;;;0.40;0.40;;;21.60;1.00;;;;;;5050126;28;20178;-76
2022/10/06 10:31:43;;;;;;;0.50;0.50;;;21.50;1.00;;;;;;5049529;28;20199;-76
2022/10/06 10:34:41;;;;;;;0.50;0.50;;;21.50;1.00;;;;;;5049991;28;20672;-75
2022/10/06 10:37:12;;;;;;;0.40;0.40;;;21.90;1.00;;;;;;5049335;28;20180;-77
2022/10/06 10:39:47;;;;;;;0.50;0.50;;;23.20;1.00;;;;;;5053510;28;20206;-77
2022/10/06 10:42:27;;;;;;;0.50;0.50;;;23.90;1.00;;;;;;5053684;28;20185;-76
2022/10/06 10:45:03;;;;;;;0.50;0.50;;;25.00;1.00;;;;;;5054070;28;20182;-76
2022/10/06 10:47:37;;;;;;;0.50;0.50;;;24.50;1.00;;;;;;5054245;28;20692;-77
2022/10/06 10:50:22;;;;;;;0.57;0.57;;;23.40;1.00;;;;;;5053912;28;20198;-75
2022/10/06 10:52:50;;;;;;;0.37;0.37;;;23.30;1.00;;;;;;5054212;28;20210;-74
2022/10/06 10:55:19;;;;;;;0.50;0.50;;;23.60;1.00;;;;;;5053964;28;20179;-75
2022/10/06 10:57:46;;;;;;;0.50;0.50;;;23.80;1.00;;;;;;5054498;28;20209;-74
2022/10/06 11:00:19;;;;;;;0.60;0.60;;;23.00;1.00;;;;;;5054295;28;20195;-73
2022/10/06 11:02:45;;;;;;;0.43;0.43;;;23.50;1.00;;;;;;5054555;28;20167;-74
2022/10/06 11:05:25;;;;;;;0.60;0.60;;;24.30;1.00;;;;;;5054443;28;20254;-74
2022/10/06 11:08:08;;;;;;;0.50;0.50;;;25.00;1.00;;;;;;5055055;28;20179;-74
2022/10/06 11:10:42;;;;;;;0.60;0.60;;;25.40;1.00;;;;;;5053520;28;20236;-74
2022/10/06 11:13:37;;;;;;;0.60;0.60;;;25.90;1.00;;;;;;5054367;28;20215;-75
2022/10/06 11:16:28;;;;;;;0.63;0.63;;;25.80;1.00;;;;;;5080639;22;20205;-79
2022/10/06 11:19:33;;;;;;;0.50;0.50;;;26.10;1.00;;;;;;5076232;28;20190;-79
2022/10/06 11:22:14;;;;;;;0.70;0.70;;;26.30;1.00;;;;;;5056173;28;20191;-78
2022/10/06 11:24:46;;;;;;;0.60;0.60;;;26.10;1.00;;;;;;5056131;28;20266;-79
2022/10/06 11:27:21;;;;;;;0.67;0.67;;;24.20;1.00;;;;;;5057205;28;20205;-79
2022/10/06 11:29:55;;;;;;;0.60;0.60;;;23.20;1.00;;;;;;5055539;28;20650;-79
2022/10/06 11:32:27;;;;;;;0.50;0.50;;;23.00;1.00;;;;;;5054632;28;20545;-76
2022/10/06 11:34:53;;;;;;;0.50;0.50;;;23.70;1.00;;;;;;5047347;28;20214;-75
2022/10/06 11:37:36;;;;;;;0.60;0.60;;;24.40;1.00;;;;;;5033514;28;20176;-75
2022/10/06 11:40:13;;;;;;;0.50;0.50;;;24.30;1.00;;;;;;5033387;28;20206;-75
2022/10/06 11:42:49;;;;;;;0.70;0.70;;;25.00;1.00;;;;;;5033860;28;20171;-75
2022/10/06 11:45:20;;;;;;;0.50;0.50;;;25.50;1.00;;;;;;5044679;28;20636;-75
2022/10/06 11:47:58;;;;;;;0.40;0.40;;;23.20;1.00;;;;;;5053482;28;20183;-76
2022/10/06 11:50:41;;;;;;;0.60;0.60;;;21.80;1.00;;;;;;5042388;28;20199;-75
2022/10/06 11:53:30;;;;;;;0.37;0.37;;;20.80;1.00;;;;;;5041246;28;20313;-74
2022/10/06 11:56:34;;;;;;;0.33;0.33;;;20.10;1.00;;;;;;5033869;28;20175;-75
2022/10/06 11:59:12;;;;;;;0.50;0.50;;;19.90;1.00;;;;;;5032277;28;20196;-75
2022/10/06 12:01:42;;;;;;;0.40;0.40;;;19.80;1.00;;;;;;5032659;28;20202;-73
2022/10/06 12:04:08;;;;;;;0.30;0.30;;;19.80;1.00;;;;;;5033054;28;20180;-73
2022/10/06 12:06:45;;;;;;;0.40;0.40;;;19.60;99.90;;;;;;5032934;28;20294;-74
2022/10/06 12:09:29;;;;;;;0.30;0.30;;;19.50;99.90;;;;;;5033418;28;20171;-74
2022/10/06 12:12:13;;;;;;;0.30;0.30;;;19.40;99.90;;;;;;5052172;28;20465;-74
2022/10/06 12:14:58;;;;;;;0.40;0.40;;;19.40;99.90;;;;;;5052775;28;20198;-74
2022/10/06 12:17:30;;;;;;;0.30;0.30;;;19.40;99.90;;;;;;5052959;28;20199;-74
2022/10/06 12:20:24;;;;;;;0.30;0.30;;;19.60;99.90;;;;;;5046482;28;20200;-75
2022/10/06 12:23:00;;;;;;;0.30;0.30;;;19.50;99.90;;;;;;5032669;28;20172;-73
2022/10/06 12:25:47;;;;;;;0.30;0.30;;;19.30;99.90;;;;;;5032783;28;20659;-74
2022/10/06 12:28:19;;;;;;;0.40;0.40;;;19.00;99.90;;;;;;5032598;28;20179;-74
2022/10/06 12:31:16;;;;;;;0.30;0.30;;;18.90;99.90;;;;;;5032217;28;20202;-74
2022/10/06 12:33:42;;;;;;;0.33;0.33;;;18.80;99.90;;;;;;5032390;28;20294;-74
2022/10/06 12:36:24;;;;;;;0.30;0.30;;;18.80;1.00;;;;;;5032600;28;20180;-74
2022/10/06 12:39:06;;;;;;;0.30;0.30;;;18.90;1.00;;;;;;5032466;28;20491;-74
2022/10/06 12:42:16;;;;;;;0.40;0.40;;;19.00;1.00;;;;;;5031868;28;20231;-73
2022/10/06 12:44:48;;;;;;;0.30;0.30;;;19.30;99.90;;;;;;5032110;28;20191;-74
2022/10/06 12:47:17;;;;;;;0.30;0.30;;;19.20;99.90;;;;;;5032187;28;20349;-74
2022/10/06 12:49:55;;;;;;;0.40;0.40;;;19.00;99.90;;;;;;5031838;28;20271;-74
2022/10/06 12:52:38;;;;;;;0.30;0.30;;;19.00;99.90;;;;;;5031957;28;20183;-73
2022/10/06 12:55:44;;;;;;;0.30;0.30;;;19.20;1.00;;;;;;5032014;28;20176;-74
2022/10/06 12:58:31;;;;;;;0.30;0.30;;;19.20;99.90;;;;;;5032550;28;20526;-74
2022/10/06 13:01:06;;;;;;;0.30;0.30;;;18.90;1.00;;;;;;5031550;28;20191;-74
2022/10/06 13:03:33;;;;;;;0.30;0.30;;;18.80;1.00;;;;;;5032189;28;20176;-73
2022/10/06 13:06:02;;;;;;;0.40;0.40;;;19.00;99.90;;;;;;5031750;28;20718;-74
2022/10/06 13:08:30;;;;;;;0.40;0.40;;;19.30;59.80;;;;;;5031955;28;20619;-73
2022/10/06 13:11:17;;;;;;;0.40;0.40;;;19.30;93.80;;;;;;5031330;28;20278;-74
2022/10/06 13:13:48;;;;;;;0.30;0.30;;;19.60;55.90;;;;;;5031688;28;20230;-74
2022/10/06 13:16:21;;;;;;;0.30;0.30;;;19.90;53.40;;;;;;5031877;28;20188;-73
2022/10/06 13:18:47;;;;;;;0.40;0.40;;;20.00;1.00;;;;;;5031529;28;20633;-74
2022/10/06 13:21:15;;;;;;;0.30;0.30;;;20.00;1.00;;;;;;5050978;28;20341;-75
2022/10/06 13:23:44;;;;;;;0.30;0.30;;;19.80;36.80;;;;;;5051888;28;20657;-76
2022/10/06 13:26:20;;;;;;;0.40;0.40;;;19.70;1.00;;;;;;5051614;28;20658;-75